createdAt,value
2022-09-09T00:02:56.788Z,15.71
2022-09-09T00:08:50.016Z,15.63
2022-09-09T00:15:25.693Z,15.54
2022-09-09T00:21:23.167Z,15.49
2022-09-09T00:27:51.108Z,15.44
2022-09-09T00:33:59.195Z,15.38
2022-09-09T00:40:12.524Z,15.32
2022-09-09T00:46:48.172Z,15.24
2022-09-09T00:53:14.063Z,15.16
2022-09-09T00:59:51.235Z,15.13
2022-09-09T01:06:58.240Z,15.11
2022-09-09T01:13:13.424Z,15.07
2022-09-09T01:19:18.249Z,15.00
2022-09-09T01:26:07.848Z,14.94
2022-09-09T01:32:44.856Z,14.93
2022-09-09T01:39:13.804Z,14.95
2022-09-09T01:45:26.629Z,14.96
2022-09-09T01:51:45.414Z,14.91
2022-09-09T01:58:20.624Z,14.81
2022-09-09T02:04:29.148Z,14.72
2022-09-09T02:10:52.428Z,14.66
2022-09-09T02:17:07.307Z,14.63
2022-09-09T02:23:04.167Z,14.61
2022-09-09T02:29:59.687Z,14.57
2022-09-09T02:36:33.847Z,14.53
2022-09-09T02:41:48.691Z,14.53
2022-09-09T02:48:37.018Z,14.48
2022-09-09T02:54:45.180Z,14.37
2022-09-09T03:01:21.073Z,14.26
2022-09-09T03:07:15.889Z,14.17
2022-09-09T03:13:54.232Z,14.11
2022-09-09T03:20:23.540Z,14.05
2022-09-09T03:26:16.168Z,13.94
2022-09-09T03:32:01.216Z,13.87
2022-09-09T03:38:13.681Z,13.78
2022-09-09T03:44:53.943Z,13.69
2022-09-09T03:51:12.801Z,13.63
2022-09-09T03:57:47.779Z,13.55
2022-09-09T04:04:12.716Z,13.53
2022-09-09T04:09:53.140Z,13.52
2022-09-09T04:15:37.574Z,13.50
2022-09-09T04:21:25.115Z,13.46
2022-09-09T04:27:36.291Z,13.39
2022-09-09T04:33:35.073Z,13.35
2022-09-09T04:39:41.140Z,13.34
2022-09-09T04:45:53.314Z,13.39
2022-09-09T04:51:58.324Z,13.46
2022-09-09T04:57:44.436Z,13.52
2022-09-09T05:04:01.027Z,13.60
2022-09-09T05:10:01.115Z,13.68
2022-09-09T05:15:52.122Z,13.77
2022-09-09T05:21:55.685Z,13.88
2022-09-09T05:28:01.791Z,13.98
2022-09-09T05:34:00.322Z,14.12
2022-09-09T05:40:18.319Z,14.26
2022-09-09T05:45:51.594Z,14.38
2022-09-09T05:51:30.351Z,14.48
2022-09-09T05:57:02.630Z,14.58
2022-09-09T06:02:38.189Z,14.68
2022-09-09T06:08:45.196Z,14.83
2022-09-09T06:14:31.581Z,14.96
2022-09-09T06:20:10.327Z,15.09
2022-09-09T06:25:49.963Z,15.21
2022-09-09T06:31:50.823Z,15.37
2022-09-09T06:37:49.951Z,15.54
2022-09-09T06:43:55.696Z,15.70
2022-09-09T06:50:18.494Z,15.85
2022-09-09T06:56:24.577Z,16.03
2022-09-09T07:02:56.810Z,16.18
2022-09-09T07:09:07.394Z,16.31
2022-09-09T07:14:53.544Z,16.48
2022-09-09T07:21:13.117Z,16.61
2022-09-09T07:27:07.749Z,16.72
2022-09-09T07:32:48.038Z,16.88
2022-09-09T07:39:05.911Z,17.09
2022-09-09T07:44:58.994Z,17.29
2022-09-09T07:51:17.737Z,17.46
2022-09-09T07:57:19.523Z,17.62
2022-09-09T08:02:51.405Z,17.78
2022-09-09T08:08:01.798Z,17.96
2022-09-09T08:13:41.309Z,18.23
2022-09-09T08:19:31.573Z,18.62
2022-09-09T08:24:43.397Z,18.88
2022-09-09T08:29:57.650Z,19.05
2022-09-09T08:35:21.778Z,19.21
2022-09-09T08:40:39.073Z,19.42
2022-09-09T08:46:09.725Z,19.70
2022-09-09T08:51:40.903Z,19.95
2022-09-09T08:56:57.237Z,20.22
2022-09-09T09:02:35.253Z,20.37
2022-09-09T09:08:44.342Z,20.37
2022-09-09T09:14:45.979Z,20.51
2022-09-09T09:20:13.672Z,20.60
2022-09-09T09:25:32.501Z,20.76
2022-09-09T09:31:18.694Z,20.90
2022-09-09T09:37:09.325Z,21.13
2022-09-09T09:42:24.458Z,21.37
2022-09-09T09:47:49.911Z,21.62
2022-09-09T09:53:40.799Z,21.69
2022-09-09T09:59:38.693Z,21.74
2022-09-09T10:04:44.839Z,21.98
2022-09-09T10:10:16.495Z,22.23
2022-09-09T10:16:05.670Z,22.29
2022-09-09T10:21:45.943Z,22.11
2022-09-09T10:27:46.476Z,21.98
2022-09-09T10:34:31.116Z,22.06
2022-09-09T10:40:12.635Z,22.31
2022-09-09T10:45:54.091Z,22.71
2022-09-09T10:51:27.679Z,22.95
2022-09-09T10:57:33.587Z,22.77
2022-09-09T11:02:51.595Z,22.61
2022-09-09T11:08:13.370Z,22.65
2022-09-09T11:14:25.813Z,22.66
2022-09-09T11:19:47.399Z,22.80
2022-09-09T11:25:35.201Z,22.83
2022-09-09T11:31:29.544Z,22.96
2022-09-09T11:37:33.584Z,23.11
2022-09-09T11:43:25.247Z,23.30
2022-09-09T11:49:01.578Z,23.64
2022-09-09T11:54:50.274Z,23.71
2022-09-09T12:00:10.127Z,23.82
2022-09-09T12:05:49.969Z,23.91
2022-09-09T12:11:33.200Z,23.95
2022-09-09T12:16:42.320Z,23.89
2022-09-09T12:22:23.533Z,23.66
2022-09-09T12:27:38.226Z,23.65
2022-09-09T12:33:07.924Z,23.85
2022-09-09T12:38:31.731Z,23.99
2022-09-09T12:43:44.738Z,24.05
2022-09-09T12:49:00.322Z,23.96
2022-09-09T12:54:54.838Z,24.03
2022-09-09T13:00:36.388Z,23.96
2022-09-09T13:06:08.880Z,23.74
2022-09-09T13:12:00.564Z,23.58
2022-09-09T13:17:30.687Z,23.69
2022-09-09T13:22:56.185Z,23.66
2022-09-09T13:28:26.304Z,23.60
2022-09-09T13:33:58.765Z,23.51
2022-09-09T13:39:24.443Z,23.39
2022-09-09T13:44:53.783Z,23.32
2022-09-09T13:50:21.292Z,23.49
2022-09-09T13:55:34.838Z,23.65
2022-09-09T14:00:59.031Z,23.67
2022-09-09T14:06:19.964Z,23.60
2022-09-09T14:11:47.648Z,23.51
2022-09-09T14:17:07.956Z,23.64
2022-09-09T14:22:45.850Z,23.70
2022-09-09T14:28:54.351Z,23.89
2022-09-09T14:34:56.121Z,23.93
2022-09-09T14:40:17.831Z,23.89
2022-09-09T14:45:49.056Z,23.87
2022-09-09T14:51:20.054Z,23.69
2022-09-09T14:56:27.337Z,23.52
2022-09-09T15:01:39.527Z,23.46
2022-09-09T15:06:51.669Z,23.25
2022-09-09T15:12:21.492Z,23.02
2022-09-09T15:17:29.536Z,22.81
2022-09-09T15:22:37.719Z,22.76
2022-09-09T15:28:03.911Z,22.75
2022-09-09T15:33:18.287Z,22.70
2022-09-09T15:39:05.922Z,22.57
2022-09-09T15:44:46.797Z,22.42
2022-09-09T15:49:52.641Z,22.24
2022-09-09T15:55:01.763Z,22.13
2022-09-09T16:00:06.027Z,22.06
2022-09-09T16:05:08.346Z,22.00
2022-09-09T16:10:19.393Z,21.89
2022-09-09T16:15:34.999Z,21.79
2022-09-09T16:21:14.638Z,21.64
2022-09-09T16:26:46.173Z,21.50
2022-09-09T16:32:12.977Z,21.34
2022-09-09T16:37:26.191Z,21.17
2022-09-09T16:42:44.360Z,20.98
2022-09-09T16:48:37.439Z,20.79
2022-09-09T16:54:35.165Z,20.52
2022-09-09T17:00:11.936Z,20.27
2022-09-09T17:05:35.965Z,20.08
2022-09-09T17:11:00.087Z,19.90
2022-09-09T17:16:42.803Z,19.73
2022-09-09T17:22:16.897Z,19.54
2022-09-09T17:28:05.071Z,19.36
2022-09-09T17:34:00.934Z,19.17
2022-09-09T17:39:52.028Z,19.02
2022-09-09T17:45:54.012Z,18.88
2022-09-09T17:51:30.884Z,18.74
2022-09-09T17:57:34.357Z,18.62
2022-09-09T18:03:05.440Z,18.51
2022-09-09T18:08:10.949Z,18.42
2022-09-09T18:13:32.464Z,18.31
2022-09-09T18:19:14.062Z,18.25
2022-09-09T18:24:27.127Z,18.21
2022-09-09T18:29:35.122Z,18.18
2022-09-09T18:34:40.070Z,18.13
2022-09-09T18:40:02.350Z,18.10
2022-09-09T18:45:38.128Z,18.06
2022-09-09T18:50:55.867Z,18.03
2022-09-09T18:56:43.019Z,18.01
2022-09-09T19:02:26.829Z,18.00
2022-09-09T19:08:03.391Z,17.97
2022-09-09T19:13:24.387Z,17.93
2022-09-09T19:19:17.031Z,17.89
2022-09-09T19:25:10.265Z,17.81
2022-09-09T19:30:30.715Z,17.70
2022-09-09T19:36:08.971Z,17.60
2022-09-09T19:41:20.844Z,17.52
2022-09-09T19:47:06.517Z,17.43
2022-09-09T19:52:41.063Z,17.34
2022-09-09T19:58:16.082Z,17.26
2022-09-09T20:03:21.401Z,17.21
2022-09-09T20:09:01.977Z,17.14
2022-09-09T20:14:21.075Z,17.04
2022-09-09T20:20:09.749Z,16.97
2022-09-09T20:25:48.813Z,16.87
2022-09-09T20:31:22.865Z,16.77
2022-09-09T20:37:31.015Z,16.66
2022-09-09T20:43:01.580Z,16.59
2022-09-09T20:48:09.988Z,16.54
2022-09-09T20:53:35.369Z,16.47
2022-09-09T20:59:11.634Z,16.46
2022-09-09T21:04:50.438Z,16.41
2022-09-09T21:10:20.755Z,16.34
2022-09-09T21:16:03.314Z,16.27
2022-09-09T21:22:07.177Z,16.19
2022-09-09T21:28:05.239Z,16.11
2022-09-09T21:33:46.288Z,16.03
2022-09-09T21:38:59.286Z,15.98
2022-09-09T21:45:02.154Z,15.95
2022-09-09T21:50:10.140Z,15.92
2022-09-09T21:55:29.301Z,15.90
2022-09-09T22:00:35.132Z,15.90
2022-09-09T22:05:59.886Z,15.93
2022-09-09T22:11:31.567Z,15.99
2022-09-09T22:16:49.160Z,16.02
2022-09-09T22:22:00.229Z,16.05
2022-09-09T22:27:16.128Z,16.07
2022-09-09T22:32:18.406Z,16.05
2022-09-09T22:37:28.120Z,16.04
2022-09-09T22:42:41.853Z,16.01
2022-09-09T22:48:28.829Z,15.97
2022-09-09T22:54:06.433Z,15.88
2022-09-09T22:59:39.494Z,15.87
2022-09-09T23:05:43.744Z,15.88
2022-09-09T23:11:09.368Z,15.85
2022-09-09T23:16:48.142Z,15.83
2022-09-09T23:21:52.605Z,15.86
2022-09-09T23:27:27.220Z,15.87
2022-09-09T23:33:21.959Z,15.86
2022-09-09T23:38:55.411Z,15.84
2022-09-09T23:45:06.731Z,15.77
2022-09-09T23:50:44.030Z,15.62
2022-09-09T23:56:32.916Z,15.43
